createdAt,value
2018-02-17T00:02:16.963Z,17.85
2018-02-17T00:04:44.646Z,16.92
2018-02-17T00:07:12.459Z,20.30
2018-02-17T00:09:40.366Z,17.55
2018-02-17T00:12:08.130Z,17.73
2018-02-17T00:14:36.291Z,16.35
2018-02-17T00:17:04.176Z,16.75
2018-02-17T00:19:31.942Z,16.80
2018-02-17T00:21:59.810Z,18.27
2018-02-17T00:24:27.682Z,17.08
2018-02-17T00:26:55.857Z,17.92
2018-02-17T00:29:23.726Z,17.27
2018-02-17T00:31:51.322Z,18.60
2018-02-17T00:34:19.049Z,17.20
2018-02-17T00:36:46.814Z,17.95
2018-02-17T00:39:14.583Z,18.70
2018-02-17T00:41:42.188Z,19.17
2018-02-17T00:44:09.988Z,20.25
2018-02-17T00:46:37.550Z,16.50
2018-02-17T00:49:05.212Z,16.87
2018-02-17T00:51:32.779Z,16.98
2018-02-17T00:54:00.307Z,17.52
2018-02-17T00:56:27.863Z,16.40
2018-02-17T00:58:55.406Z,16.30
2018-02-17T01:01:22.928Z,18.15
2018-02-17T01:03:50.495Z,15.35
2018-02-17T01:06:18.011Z,17.75
2018-02-17T01:08:45.535Z,15.50
2018-02-17T01:11:13.085Z,16.48
2018-02-17T01:13:40.602Z,16.37
2018-02-17T01:16:08.621Z,17.25
2018-02-17T01:18:36.144Z,16.65
2018-02-17T01:21:03.672Z,16.83
2018-02-17T01:23:31.230Z,15.63
2018-02-17T01:25:58.744Z,14.82
2018-02-17T01:28:26.310Z,14.23
2018-02-17T01:30:53.831Z,17.70
2018-02-17T01:33:21.357Z,19.35
2018-02-17T01:35:48.918Z,19.12
2018-02-17T01:38:16.498Z,21.50
2018-02-17T01:40:44.185Z,24.75
2018-02-17T01:43:11.706Z,25.80
2018-02-17T01:45:39.225Z,20.85
2018-02-17T01:48:06.780Z,21.00
2018-02-17T01:50:34.297Z,24.50
2018-02-17T01:53:02.359Z,23.75
2018-02-17T01:55:30.026Z,21.80
2018-02-17T01:57:57.639Z,20.80
2018-02-17T02:00:25.186Z,20.58
2018-02-17T02:02:52.710Z,19.30
2018-02-17T02:05:20.510Z,23.80
2018-02-17T02:07:48.029Z,22.67
2018-02-17T02:10:16.048Z,24.70
2018-02-17T02:12:43.598Z,25.17
2018-02-17T02:15:11.123Z,24.27
2018-02-17T02:17:38.681Z,23.38
2018-02-17T02:20:06.198Z,26.92
2018-02-17T02:22:33.712Z,27.67
2018-02-17T02:25:01.257Z,23.92
2018-02-17T02:27:28.786Z,25.15
2018-02-17T02:29:56.819Z,24.33
2018-02-17T02:32:24.344Z,25.85
2018-02-17T02:34:51.871Z,25.52
2018-02-17T02:37:19.437Z,24.12
2018-02-17T02:39:46.963Z,27.17
2018-02-17T02:42:14.716Z,22.77
2018-02-17T02:44:42.250Z,25.23
2018-02-17T02:47:09.783Z,26.08
2018-02-17T02:49:37.344Z,25.50
2018-02-17T02:52:04.880Z,27.25
2018-02-17T02:54:32.823Z,26.58
2018-02-17T02:57:00.354Z,26.75
2018-02-17T02:59:27.887Z,26.87
2018-02-17T03:01:55.442Z,26.35
2018-02-17T03:04:22.982Z,26.50
2018-02-17T03:06:50.933Z,28.00
2018-02-17T03:09:18.457Z,23.25
2018-02-17T03:11:45.989Z,26.58
2018-02-17T03:14:13.533Z,24.87
2018-02-17T03:16:41.081Z,27.20
2018-02-17T03:19:08.642Z,26.12
2018-02-17T03:21:36.164Z,28.77
2018-02-17T03:24:03.699Z,29.08
2018-02-17T03:26:31.262Z,25.92
2018-02-17T03:28:58.795Z,28.65
2018-02-17T03:31:26.346Z,29.80
2018-02-17T03:33:53.894Z,30.27
2018-02-17T03:36:21.412Z,27.02
2018-02-17T03:38:48.966Z,25.08
2018-02-17T03:41:16.490Z,26.98
2018-02-17T03:43:44.329Z,26.87
2018-02-17T03:46:11.849Z,27.90
2018-02-17T03:48:39.385Z,31.90
2018-02-17T03:51:06.925Z,26.12
2018-02-17T03:53:34.442Z,27.17
2018-02-17T03:56:02.107Z,25.80
2018-02-17T03:58:29.632Z,26.73
2018-02-17T04:00:57.156Z,28.67
2018-02-17T04:03:24.707Z,29.20
2018-02-17T04:05:52.224Z,39.50
2018-02-17T04:08:19.783Z,30.67
2018-02-17T04:10:47.296Z,30.23
2018-02-17T04:13:14.818Z,26.33
2018-02-17T04:15:42.370Z,32.55
2018-02-17T04:18:09.893Z,28.45
2018-02-17T04:20:37.591Z,32.60
2018-02-17T04:23:05.106Z,30.02
2018-02-17T04:25:32.622Z,30.77
2018-02-17T04:28:00.183Z,31.90
2018-02-17T04:30:27.710Z,30.73
2018-02-17T04:32:55.261Z,32.65
2018-02-17T04:35:22.785Z,30.30
2018-02-17T04:37:50.309Z,30.02
2018-02-17T04:43:38.587Z,29.87
2018-02-17T04:46:08.195Z,30.83
2018-02-17T04:48:36.260Z,27.73
2018-02-17T04:54:27.282Z,31.12
2018-02-17T04:57:00.388Z,27.10
2018-02-17T04:59:34.298Z,25.85
2018-02-17T05:05:24.027Z,29.52
2018-02-17T05:07:52.323Z,28.67
2018-02-17T05:10:19.846Z,27.30
2018-02-17T05:12:47.392Z,31.08
2018-02-17T05:15:19.674Z,25.12
2018-02-17T05:17:53.126Z,29.40
2018-02-17T05:20:36.258Z,27.17
2018-02-17T05:26:06.566Z,26.75
2018-02-17T05:28:34.302Z,26.62
2018-02-17T05:31:03.347Z,26.10
2018-02-17T05:33:36.643Z,26.05
2018-02-17T05:39:07.627Z,25.85
2018-02-17T05:41:50.930Z,28.10
2018-02-17T05:47:26.438Z,28.12
2018-02-17T05:49:56.498Z,26.37
2018-02-17T05:52:24.018Z,28.83
2018-02-17T05:54:51.546Z,27.33
2018-02-17T05:57:19.093Z,28.48
2018-02-17T05:59:46.621Z,26.95
2018-02-17T06:02:14.406Z,31.27
2018-02-17T06:04:41.917Z,30.83
2018-02-17T06:07:09.447Z,27.48
2018-02-17T06:09:36.998Z,29.25
2018-02-17T06:12:05.426Z,24.98
2018-02-17T06:14:32.994Z,28.77
2018-02-17T06:17:00.511Z,27.10
2018-02-17T06:19:28.028Z,26.73
2018-02-17T06:21:55.573Z,28.58
2018-02-17T06:24:23.095Z,26.85
2018-02-17T06:26:50.734Z,27.48
2018-02-17T06:29:18.249Z,29.10
2018-02-17T06:31:45.771Z,30.40
2018-02-17T06:34:13.318Z,30.67
2018-02-17T06:36:40.828Z,30.15
2018-02-17T06:39:08.382Z,27.13
2018-02-17T06:41:35.905Z,28.17
2018-02-17T06:44:03.414Z,25.88
2018-02-17T06:46:30.963Z,28.23
2018-02-17T06:48:58.477Z,26.70
2018-02-17T06:51:26.196Z,25.67
2018-02-17T06:53:53.782Z,24.90
2018-02-17T06:56:21.310Z,27.45
2018-02-17T06:58:48.854Z,26.02
2018-02-17T07:01:16.374Z,31.20
2018-02-17T07:03:44.029Z,27.58
2018-02-17T07:06:11.545Z,24.17
2018-02-17T07:08:39.062Z,23.80
2018-02-17T07:11:06.609Z,23.62
2018-02-17T07:13:34.132Z,24.17
2018-02-17T07:16:02.838Z,22.55
2018-02-17T07:18:30.361Z,25.33
2018-02-17T07:20:57.876Z,24.15
2018-02-17T07:23:25.414Z,24.63
2018-02-17T07:25:52.930Z,20.90
2018-02-17T07:28:20.530Z,22.23
2018-02-17T07:30:48.049Z,21.33
2018-02-17T07:33:15.576Z,23.38
2018-02-17T07:35:43.138Z,27.50
2018-02-17T07:38:10.658Z,23.80
2018-02-17T07:40:38.532Z,21.17
2018-02-17T07:43:06.066Z,25.05
2018-02-17T07:45:33.591Z,26.52
2018-02-17T07:48:01.138Z,25.37
2018-02-17T07:50:28.769Z,23.38
2018-02-17T07:52:56.719Z,24.52
2018-02-17T07:55:24.229Z,22.33
2018-02-17T07:57:51.748Z,26.55
2018-02-17T08:00:20.137Z,26.10
2018-02-17T08:02:47.674Z,24.92
2018-02-17T08:05:15.230Z,22.17
2018-02-17T08:07:43.016Z,22.83
2018-02-17T08:10:10.639Z,22.90
2018-02-17T08:12:38.542Z,21.02
2018-02-17T08:15:06.308Z,20.65
2018-02-17T08:17:34.053Z,22.25
2018-02-17T08:20:01.576Z,23.50
2018-02-17T08:22:29.127Z,19.17
2018-02-17T08:24:56.680Z,19.73
2018-02-17T08:27:24.412Z,20.67
2018-02-17T08:29:52.359Z,25.35
2018-02-17T08:32:19.883Z,23.60
2018-02-17T08:34:48.015Z,21.25
2018-02-17T08:37:15.558Z,22.33
2018-02-17T08:39:43.316Z,23.95
2018-02-17T08:42:11.101Z,22.60
2018-02-17T08:44:38.967Z,21.65
2018-02-17T08:47:06.510Z,21.45
2018-02-17T08:49:34.288Z,24.70
2018-02-17T08:52:01.957Z,26.15
2018-02-17T08:54:29.817Z,21.37
2018-02-17T08:56:57.688Z,19.12
2018-02-17T08:59:25.551Z,20.98
2018-02-17T09:01:53.153Z,22.90
2018-02-17T09:04:20.975Z,21.40
2018-02-17T09:06:49.252Z,23.35
2018-02-17T09:09:17.055Z,22.90
2018-02-17T09:11:44.883Z,22.75
2018-02-17T09:14:13.056Z,19.75
2018-02-17T09:16:40.922Z,20.83
2018-02-17T09:19:08.792Z,21.00
2018-02-17T09:21:36.671Z,22.23
2018-02-17T09:24:04.525Z,21.02
2018-02-17T09:26:32.671Z,20.95
2018-02-17T09:29:01.039Z,20.83
2018-02-17T09:31:28.940Z,21.80
2018-02-17T09:33:56.807Z,20.30
2018-02-17T09:36:24.570Z,16.27
2018-02-17T09:38:52.804Z,20.70
2018-02-17T09:41:20.817Z,23.15
2018-02-17T09:43:48.683Z,23.05
2018-02-17T09:46:16.415Z,22.30
2018-02-17T09:48:44.292Z,19.95
2018-02-17T09:51:12.180Z,20.35
2018-02-17T09:53:40.148Z,17.23
2018-02-17T09:56:08.017Z,19.95
2018-02-17T09:58:35.778Z,18.17
2018-02-17T10:01:03.749Z,20.88
2018-02-17T10:03:31.545Z,20.77
2018-02-17T10:05:59.379Z,18.92
2018-02-17T10:08:27.246Z,17.90
2018-02-17T10:10:55.536Z,17.62
2018-02-17T10:13:23.563Z,17.95
2018-02-17T10:15:52.383Z,18.87
2018-02-17T10:18:20.395Z,18.73
2018-02-17T10:20:48.289Z,17.70
2018-02-17T10:23:16.085Z,19.23
2018-02-17T10:25:44.974Z,18.08
2018-02-17T10:28:13.045Z,17.90
2018-02-17T10:30:40.915Z,16.80
2018-02-17T10:33:08.982Z,16.58
2018-02-17T10:35:36.884Z,18.40
2018-02-17T10:38:05.025Z,19.27
2018-02-17T10:40:32.889Z,17.62
2018-02-17T10:43:00.657Z,17.65
2018-02-17T10:45:28.623Z,15.43
2018-02-17T10:47:57.458Z,15.00
2018-02-17T10:50:25.484Z,16.42
2018-02-17T10:52:53.429Z,17.27
2018-02-17T10:55:21.371Z,17.42
2018-02-17T10:57:49.261Z,18.58
2018-02-17T11:00:17.257Z,18.45
2018-02-17T11:02:45.431Z,15.25
2018-02-17T11:05:13.295Z,18.00
2018-02-17T11:07:41.163Z,17.55
2018-02-17T11:10:09.170Z,16.45
2018-02-17T11:12:36.998Z,17.92
2018-02-17T11:15:05.682Z,18.27
2018-02-17T11:17:33.520Z,16.00
2018-02-17T11:20:01.416Z,16.73
2018-02-17T11:22:29.487Z,14.93
2018-02-17T11:24:57.353Z,15.35
2018-02-17T11:27:25.434Z,16.08
2018-02-17T11:29:53.292Z,15.63
2018-02-17T11:32:21.134Z,14.73
2018-02-17T11:34:49.025Z,16.12
2018-02-17T11:37:16.827Z,16.30
2018-02-17T11:39:45.681Z,16.10
2018-02-17T11:42:13.649Z,15.45
2018-02-17T11:44:42.128Z,16.98
2018-02-17T11:47:10.068Z,15.65
2018-02-17T11:49:38.271Z,15.68
2018-02-17T11:52:06.483Z,15.55
2018-02-17T11:54:34.170Z,15.80
2018-02-17T11:57:02.385Z,16.95
2018-02-17T11:59:30.224Z,12.77
2018-02-17T12:01:58.630Z,14.45
2018-02-17T12:04:26.884Z,16.50
2018-02-17T12:06:54.770Z,14.77
2018-02-17T12:09:23.254Z,13.70
2018-02-17T12:11:51.223Z,14.85
2018-02-17T12:14:19.226Z,13.82
2018-02-17T12:16:47.219Z,15.50
2018-02-17T12:19:15.126Z,15.05
2018-02-17T12:21:42.992Z,13.82
2018-02-17T12:24:10.967Z,12.55
2018-02-17T12:26:38.878Z,11.05
2018-02-17T12:29:06.797Z,9.23
2018-02-17T12:31:34.663Z,10.52
2018-02-17T12:34:02.531Z,9.00
2018-02-17T12:36:30.499Z,10.70
2018-02-17T12:38:59.366Z,10.82
2018-02-17T12:41:28.388Z,9.68
2018-02-17T12:43:56.248Z,11.75
2018-02-17T12:46:24.115Z,10.98
2018-02-17T12:48:52.058Z,9.82
2018-02-17T12:51:19.949Z,10.65
2018-02-17T12:53:47.920Z,11.05
2018-02-17T12:56:15.786Z,11.55
2018-02-17T12:58:43.524Z,10.70
2018-02-17T13:01:11.928Z,10.27
2018-02-17T13:03:40.000Z,9.52
2018-02-17T13:06:07.865Z,12.68
2018-02-17T13:08:36.555Z,12.20
2018-02-17T13:11:04.418Z,11.20
2018-02-17T13:13:32.283Z,11.40
2018-02-17T13:16:00.150Z,12.07
2018-02-17T13:18:27.981Z,18.05
2018-02-17T13:20:57.013Z,19.85
2018-02-17T13:23:24.876Z,15.77
2018-02-17T13:25:52.806Z,13.52
2018-02-17T13:28:26.754Z,12.90
2018-02-17T13:30:54.690Z,11.93
2018-02-17T13:33:22.488Z,11.80
2018-02-17T13:35:50.352Z,12.68
2018-02-17T13:38:18.834Z,10.77
2018-02-17T13:40:46.906Z,10.32
2018-02-17T13:43:14.763Z,9.27
2018-02-17T13:45:42.639Z,10.70
2018-02-17T13:48:10.504Z,8.52
2018-02-17T13:50:38.269Z,10.65
2018-02-17T13:53:06.546Z,9.82
2018-02-17T13:55:35.861Z,11.48
2018-02-17T13:58:03.695Z,10.82
2018-02-17T14:00:31.578Z,10.18
2018-02-17T14:03:00.366Z,9.93
2018-02-17T14:05:28.233Z,9.43
2018-02-17T14:07:56.308Z,8.95
2018-02-17T14:10:24.068Z,8.48
2018-02-17T14:12:51.941Z,8.30
2018-02-17T14:15:21.032Z,8.02
2018-02-17T14:17:48.999Z,6.55
2018-02-17T14:20:16.968Z,6.20
2018-02-17T14:22:44.838Z,7.15
2018-02-17T14:25:13.520Z,7.25
2018-02-17T14:27:41.488Z,7.12
2018-02-17T14:30:09.285Z,5.35
2018-02-17T14:32:37.631Z,5.85
2018-02-17T14:35:06.111Z,6.30
2018-02-17T14:37:34.184Z,7.70
2018-02-17T14:40:02.153Z,6.35
2018-02-17T14:42:30.019Z,7.68
2018-02-17T14:44:57.987Z,7.62
2018-02-17T14:47:25.956Z,7.00
2018-02-17T14:49:53.823Z,8.40
2018-02-17T14:52:21.791Z,11.75
2018-02-17T14:54:49.766Z,6.53
2018-02-17T14:57:18.650Z,7.07
2018-02-17T14:59:46.585Z,7.22
2018-02-17T15:02:15.612Z,6.10
2018-02-17T15:04:43.683Z,6.43
2018-02-17T15:07:12.371Z,7.68
2018-02-17T15:09:40.721Z,6.68
2018-02-17T15:12:08.615Z,5.68
2018-02-17T15:14:37.574Z,6.95
2018-02-17T15:17:05.474Z,7.25
2018-02-17T15:19:34.058Z,7.03
2018-02-17T15:22:01.616Z,7.57
2018-02-17T15:24:29.883Z,23.73
2018-02-17T15:26:57.759Z,15.88
2018-02-17T15:29:25.624Z,11.12
2018-02-17T15:31:53.353Z,9.80
2018-02-17T15:34:21.255Z,9.00
2018-02-17T15:36:49.224Z,9.23
2018-02-17T15:39:18.217Z,9.32
2018-02-17T15:41:46.707Z,9.35
2018-02-17T15:44:14.533Z,10.73
2018-02-17T15:46:43.558Z,10.80
2018-02-17T15:49:11.390Z,10.43
2018-02-17T15:51:39.803Z,10.05
2018-02-17T15:54:07.771Z,10.02
2018-02-17T15:56:36.016Z,14.13
2018-02-17T15:59:03.916Z,12.13
2018-02-17T16:01:31.781Z,10.85
2018-02-17T16:03:59.751Z,13.70
2018-02-17T16:06:27.718Z,11.68
2018-02-17T16:08:55.806Z,12.37
2018-02-17T16:11:23.815Z,12.98
2018-02-17T16:13:51.728Z,15.20
2018-02-17T16:16:19.595Z,12.90
2018-02-17T16:18:47.669Z,13.30
2018-02-17T16:21:15.532Z,15.05
2018-02-17T16:23:43.501Z,14.65
2018-02-17T16:26:11.572Z,17.12
2018-02-17T16:28:39.406Z,15.70
2018-02-17T16:31:07.305Z,15.82
2018-02-17T16:33:36.196Z,16.37
2018-02-17T16:36:04.383Z,17.58
2018-02-17T16:38:32.235Z,17.10
2018-02-17T16:41:00.110Z,17.15
2018-02-17T16:43:27.969Z,16.27
2018-02-17T16:45:55.744Z,16.98
2018-02-17T16:48:24.008Z,16.98
2018-02-17T16:50:53.001Z,18.90
2018-02-17T16:53:21.072Z,19.02
2018-02-17T16:55:48.942Z,18.60
2018-02-17T16:58:16.805Z,18.15
2018-02-17T17:00:45.389Z,18.67
2018-02-17T17:03:13.255Z,18.15
2018-02-17T17:05:41.122Z,18.85
2018-02-17T17:08:09.193Z,22.15
2018-02-17T17:10:37.060Z,19.42
2018-02-17T17:13:06.462Z,19.67
2018-02-17T17:15:34.329Z,20.70
2018-02-17T17:18:02.196Z,19.92
2018-02-17T17:20:30.061Z,18.52
2018-02-17T17:22:58.134Z,18.70
2018-02-17T17:25:26.262Z,19.58
2018-02-17T17:27:54.172Z,18.12
2018-02-17T17:30:22.756Z,20.73
2018-02-17T17:32:50.725Z,20.08
2018-02-17T17:35:19.103Z,20.83
2018-02-17T17:37:48.169Z,23.50
2018-02-17T17:40:16.066Z,22.70
2018-02-17T17:42:43.932Z,21.80
2018-02-17T17:45:11.869Z,22.95
2018-02-17T17:47:40.074Z,20.90
2018-02-17T17:50:08.861Z,21.98
2018-02-17T17:52:36.693Z,22.15
2018-02-17T17:55:04.701Z,21.95
2018-02-17T17:57:32.768Z,19.70
2018-02-17T18:00:00.635Z,22.58
2018-02-17T18:02:28.604Z,22.20
2018-02-17T18:04:56.471Z,23.83
2018-02-17T18:07:24.337Z,29.15
2018-02-17T18:09:52.203Z,30.75
2018-02-17T18:12:20.001Z,25.40
2018-02-17T18:14:47.937Z,24.67
2018-02-17T18:17:15.706Z,22.85
2018-02-17T18:19:43.526Z,18.12
2018-02-17T18:22:12.252Z,24.52
2018-02-17T18:24:40.119Z,25.08
2018-02-17T18:27:08.395Z,26.73
2018-02-17T18:29:36.342Z,27.17
2018-02-17T18:32:04.229Z,24.80
2018-02-17T18:34:35.886Z,29.40
2018-02-17T18:37:03.716Z,27.75
2018-02-17T18:39:31.825Z,30.15
2018-02-17T18:41:59.689Z,27.15
2018-02-17T18:44:27.696Z,27.60
2018-02-17T18:46:55.735Z,28.10
2018-02-17T18:49:23.596Z,30.02
2018-02-17T18:51:52.462Z,28.80
2018-02-17T18:54:20.284Z,28.35
2018-02-17T18:56:49.243Z,29.50
2018-02-17T18:59:17.191Z,32.00
2018-02-17T19:01:45.080Z,29.42
2018-02-17T19:04:13.476Z,28.70
2018-02-17T19:06:41.426Z,28.87
2018-02-17T19:09:09.292Z,26.90
2018-02-17T19:11:37.261Z,31.20
2018-02-17T19:14:05.229Z,28.15
2018-02-17T19:16:33.096Z,29.37
2018-02-17T19:19:00.965Z,30.17
2018-02-17T19:21:29.955Z,29.15
2018-02-17T19:23:57.822Z,30.27
2018-02-17T19:26:25.690Z,26.80
2018-02-17T19:28:54.169Z,30.33
2018-02-17T19:31:23.164Z,29.75
2018-02-17T19:33:51.246Z,30.08
2018-02-17T19:36:19.203Z,28.92
2018-02-17T19:38:48.196Z,31.45
2018-02-17T19:41:16.721Z,32.03
2018-02-17T19:43:44.638Z,27.92
2018-02-17T19:46:13.444Z,29.45
2018-02-17T19:48:41.610Z,30.92
2018-02-17T19:51:09.687Z,29.02
2018-02-17T19:53:37.647Z,25.90
2018-02-17T19:56:05.616Z,29.55
2018-02-17T19:58:34.301Z,26.95
2018-02-17T20:01:02.884Z,29.80
2018-02-17T20:03:30.752Z,26.92
2018-02-17T20:05:59.133Z,27.52
2018-02-17T20:08:28.240Z,28.87
2018-02-17T20:10:56.877Z,27.90
2018-02-17T20:13:24.879Z,26.90
2018-02-17T20:15:53.256Z,29.10
2018-02-17T20:18:21.194Z,25.45
2018-02-17T20:20:49.808Z,23.60
2018-02-17T20:23:18.379Z,29.77
2018-02-17T20:25:46.198Z,28.98
2018-02-17T20:28:14.535Z,26.30
2018-02-17T20:30:42.913Z,27.00
2018-02-17T20:33:10.784Z,27.85
2018-02-17T20:35:39.261Z,29.17
2018-02-17T20:38:07.537Z,27.23
2018-02-17T20:40:35.506Z,28.55
2018-02-17T20:43:03.537Z,29.10
2018-02-17T20:45:31.648Z,30.17
2018-02-17T20:47:59.593Z,29.08
2018-02-17T20:50:27.460Z,28.77
2018-02-17T20:52:55.556Z,28.00
2018-02-17T20:55:23.934Z,27.62
2018-02-17T20:57:51.800Z,28.73
2018-02-17T21:00:20.081Z,32.45
2018-02-17T21:02:47.971Z,28.50
2018-02-17T21:05:15.911Z,28.12
2018-02-17T21:07:44.615Z,29.73
2018-02-17T21:10:12.668Z,28.80
2018-02-17T21:12:40.683Z,29.35
2018-02-17T21:15:09.224Z,31.05
2018-02-17T21:17:37.291Z,29.83
2018-02-17T21:20:06.183Z,29.27
2018-02-17T21:22:34.001Z,28.67
2018-02-17T21:25:01.990Z,29.00
2018-02-17T21:27:29.883Z,29.00
2018-02-17T21:29:59.389Z,30.52
2018-02-17T21:32:28.177Z,30.12
2018-02-17T21:34:56.042Z,28.30
2018-02-17T21:37:24.216Z,28.92
2018-02-17T21:39:52.519Z,26.75
2018-02-17T21:42:20.975Z,30.55
2018-02-17T21:44:49.044Z,31.65
2018-02-17T21:47:17.628Z,29.83
2018-02-17T21:49:45.958Z,26.95
2018-02-17T21:52:13.874Z,28.55
2018-02-17T21:54:41.738Z,27.08
2018-02-17T21:57:09.913Z,28.58
2018-02-17T21:59:37.781Z,29.40
2018-02-17T22:02:05.716Z,27.45
2018-02-17T22:04:33.591Z,29.63
2018-02-17T22:07:05.530Z,26.37
2018-02-17T22:09:33.446Z,30.02
2018-02-17T22:12:01.619Z,30.92
2018-02-17T22:14:29.705Z,28.92
2018-02-17T22:16:58.680Z,27.50
2018-02-17T22:19:27.371Z,24.80
2018-02-17T22:21:55.335Z,27.10
2018-02-17T22:24:23.201Z,25.00
2018-02-17T22:26:51.498Z,25.02
2018-02-17T22:29:21.289Z,27.08
2018-02-17T22:31:49.158Z,26.40
2018-02-17T22:34:17.093Z,26.33
2018-02-17T22:36:44.991Z,24.48
2018-02-17T22:39:13.015Z,24.70
2018-02-17T22:41:40.883Z,23.52
2018-02-17T22:44:09.173Z,23.92
2018-02-17T22:46:38.887Z,25.98
2018-02-17T22:49:06.781Z,25.25
2018-02-17T22:51:34.854Z,24.08
2018-02-17T22:54:03.092Z,24.48
2018-02-17T22:56:32.024Z,24.00
2018-02-17T22:59:00.001Z,25.73
2018-02-17T23:01:28.980Z,24.30
2018-02-17T23:03:57.053Z,27.08
2018-02-17T23:06:25.432Z,24.92
2018-02-17T23:08:54.030Z,27.75
2018-02-17T23:11:23.253Z,28.62
2018-02-17T23:13:52.402Z,25.48
2018-02-17T23:16:21.975Z,26.98
2018-02-17T23:18:54.755Z,25.90
2018-02-17T23:21:25.576Z,26.90
2018-02-17T23:23:54.013Z,26.20
2018-02-17T23:26:23.620Z,25.88
2018-02-17T23:28:51.590Z,24.77
2018-02-17T23:31:19.486Z,24.63
2018-02-17T23:33:48.254Z,24.42
2018-02-17T23:36:16.518Z,26.90
2018-02-17T23:38:44.897Z,23.42
2018-02-17T23:41:13.586Z,24.70
2018-02-17T23:43:42.167Z,25.55
2018-02-17T23:46:11.058Z,24.67
2018-02-17T23:48:38.923Z,25.50
2018-02-17T23:51:07.199Z,25.00
2018-02-17T23:53:35.066Z,25.35
2018-02-17T23:56:02.932Z,25.92
2018-02-17T23:58:30.901Z,26.65
